Accueil
METAR-TAF:

METAR-TAF

Aéroports :

Saint-Sébastien, Espagne

Aéroport de Saint-Sébastien

latitude: 43-21N, longitude: 001-48W, altitude: 5 m

Observation

Le bulletin a été fait il y a 26 minutes, à 22:00 UTC
Vent 4 kt de nord/nord-ouest, variant entre ouest et nord-est
Température 11°C
Humidité 50%
Pression 1022 hPa
Visibilité 10 km ou plus
Quelques nuages à une hauteur de 4500 ft

METAR: LESO 272200Z AUTO 33004KT 270V050 9999 FEW045 11/01 Q1022

Heure: 00:26 (22:26 UTC)

Prévision

Le bulletin a été fait il y a 5 heures et 26 minutes, à 17:00 UTC
Prévision valable du 27 à 18 UTC au 28 à 18 UTC
Vent 5 kt de direction variable
Visibilité 10 km ou plus
Nuages épars à une hauteur de 3000 ft
Temporairement
du 28 à 12 UTC au 28 à 18 UTC
Vent 10 kt de nord

TAF: LESO 271700Z 2718/2818 VRB05KT 9999 SCT030 TX15/2814Z TN07/2806Z TEMPO 2812/2818 01010KT

Observations et prévisions météorologiques de plus de 4000 aéroports (messages METAR et TAF).

Les stations disponibles sont représentées par des disques jaunes et rouges sur la carte.

Passer la souris dessus pour voir le nom de la station.

Cliquer dessus pour voir les observations et prévisions météorologiques.

Pour changer de carte: cliquez sur les boutons verts avec une croix noire pour zoomer, sur le bouton vert avec un tiret pour effectuer un zoom arrière, ou sur les flèches vertes pour les cartes adjacentes.


METAR-TAF: